createdAt,value
2022-12-07T00:01:34.303Z,0.66
2022-12-07T00:04:07.077Z,0.61
2022-12-07T00:06:37.193Z,0.58
2022-12-07T00:09:06.470Z,0.56
2022-12-07T00:11:37.837Z,0.49
2022-12-07T00:14:08.941Z,0.45
2022-12-07T00:16:36.598Z,0.32
2022-12-07T00:19:05.016Z,-0.23
2022-12-07T00:21:35.452Z,-0.36
2022-12-07T00:24:04.453Z,-0.48
2022-12-07T00:26:36.699Z,-0.39
2022-12-07T00:29:10.424Z,-0.07
2022-12-07T00:31:42.060Z,-0.04
2022-12-07T00:34:15.045Z,-0.18
2022-12-07T00:36:42.660Z,-0.25
2022-12-07T00:39:10.645Z,-0.38
2022-12-07T00:41:38.119Z,-0.64
2022-12-07T00:44:06.071Z,-0.31
2022-12-07T00:46:34.015Z,-0.31
2022-12-07T00:49:01.664Z,-0.08
2022-12-07T00:51:29.179Z,-0.05
2022-12-07T00:53:56.857Z,0.04
2022-12-07T00:56:26.644Z,0.05
2022-12-07T00:58:59.796Z,0.10
2022-12-07T01:01:30.186Z,0.20
2022-12-07T01:03:57.857Z,0.12
2022-12-07T01:06:26.420Z,0.04
2022-12-07T01:08:55.304Z,-0.12
2022-12-07T01:11:25.654Z,-0.02
2022-12-07T01:13:55.348Z,-0.19
2022-12-07T01:16:25.108Z,-0.01
2022-12-07T01:18:54.928Z,-0.05
2022-12-07T01:21:31.061Z,-0.14
2022-12-07T01:23:59.193Z,-0.15
2022-12-07T01:26:27.563Z,-0.05
2022-12-07T01:28:56.206Z,-0.01
2022-12-07T01:31:25.704Z,0.03
2022-12-07T01:33:56.440Z,-0.36
2022-12-07T01:36:33.607Z,-0.73
2022-12-07T01:39:04.597Z,-0.31
2022-12-07T01:41:35.611Z,-0.30
2022-12-07T01:44:19.468Z,-0.38
2022-12-07T01:46:52.734Z,-0.42
2022-12-07T01:49:34.649Z,-0.38
2022-12-07T01:52:23.917Z,-0.35
2022-12-07T01:54:56.345Z,-0.32
2022-12-07T01:57:24.401Z,-0.47
2022-12-07T01:59:53.753Z,-0.38
2022-12-07T02:02:27.402Z,-0.42
2022-12-07T02:04:58.213Z,-0.41
2022-12-07T02:07:27.858Z,-0.38
2022-12-07T02:09:55.993Z,-0.32
2022-12-07T02:12:25.112Z,-0.38
2022-12-07T02:14:53.234Z,-0.29
2022-12-07T02:17:50.748Z,-0.33
2022-12-07T02:20:39.468Z,-0.49
2022-12-07T02:23:22.136Z,-0.44
2022-12-07T02:25:58.764Z,-0.33
2022-12-07T02:29:05.420Z,-0.34
2022-12-07T02:31:33.301Z,-0.58
2022-12-07T02:34:29.524Z,-0.45
2022-12-07T02:37:05.141Z,-0.37
2022-12-07T02:39:45.152Z,-0.45
2022-12-07T02:42:21.763Z,-0.43
2022-12-07T02:44:49.608Z,-0.38
2022-12-07T02:47:20.456Z,-0.39
2022-12-07T02:49:50.307Z,-0.34
2022-12-07T02:52:18.064Z,-0.35
2022-12-07T02:54:45.505Z,-0.36
2022-12-07T02:57:52.228Z,-0.37
2022-12-07T03:00:21.380Z,-0.35
2022-12-07T03:02:59.666Z,-0.57
2022-12-07T03:05:53.248Z,-0.33
2022-12-07T03:09:02.934Z,-0.31
2022-12-07T03:11:35.921Z,-0.41
2022-12-07T03:14:24.587Z,-0.33
2022-12-07T03:17:07.439Z,-0.35
2022-12-07T03:19:36.309Z,-0.30
2022-12-07T03:22:08.913Z,-0.33
2022-12-07T03:24:57.193Z,-0.40
2022-12-07T03:27:28.324Z,-0.38
2022-12-07T03:30:03.159Z,-0.42
2022-12-07T03:32:45.760Z,-0.33
2022-12-07T03:35:19.701Z,-0.39
2022-12-07T03:37:55.656Z,-0.34
2022-12-07T03:40:44.222Z,-0.22
2022-12-07T03:43:12.907Z,-0.26
2022-12-07T03:45:45.121Z,-0.30
2022-12-07T03:48:32.616Z,-0.51
2022-12-07T03:51:14.984Z,-0.55
2022-12-07T03:54:00.169Z,-0.46
2022-12-07T03:56:30.019Z,-0.36
2022-12-07T03:59:04.564Z,-0.31
2022-12-07T04:01:32.935Z,-0.64
2022-12-07T04:04:00.648Z,-0.55
2022-12-07T04:06:28.052Z,-0.59
2022-12-07T04:08:55.528Z,-0.50
2022-12-07T04:11:23.401Z,-0.69
2022-12-07T04:14:09.534Z,-0.92
2022-12-07T04:16:42.696Z,-0.70
2022-12-07T04:19:12.227Z,-0.77
2022-12-07T04:21:40.816Z,-0.68
2022-12-07T04:24:08.333Z,-0.62
2022-12-07T04:26:35.825Z,-0.49
2022-12-07T04:29:07.429Z,-0.49
2022-12-07T04:31:36.119Z,-0.46
2022-12-07T04:34:04.737Z,-0.44
2022-12-07T04:36:33.200Z,-0.35
2022-12-07T04:39:01.500Z,-0.54
2022-12-07T04:41:29.337Z,-0.54
2022-12-07T04:43:57.152Z,-0.52
2022-12-07T04:46:26.070Z,-0.50
2022-12-07T04:48:54.709Z,-0.49
2022-12-07T04:51:25.260Z,-0.57
2022-12-07T04:53:53.587Z,-0.46
2022-12-07T04:56:21.836Z,-0.48
2022-12-07T04:58:50.590Z,-0.46
2022-12-07T05:01:19.236Z,-0.50
2022-12-07T05:03:47.061Z,-0.63
2022-12-07T05:06:15.569Z,-0.49
2022-12-07T05:08:43.898Z,-0.65
2022-12-07T05:11:35.333Z,-0.64
2022-12-07T05:14:04.360Z,-0.65
2022-12-07T05:16:32.446Z,-0.66
2022-12-07T05:19:00.252Z,-0.62
2022-12-07T05:21:27.767Z,-0.73
2022-12-07T05:23:55.566Z,-0.76
2022-12-07T05:26:22.964Z,-0.66
2022-12-07T05:28:54.619Z,-0.73
2022-12-07T05:31:24.074Z,-0.96
2022-12-07T05:33:51.937Z,-0.80
2022-12-07T05:36:19.490Z,-0.83
2022-12-07T05:38:47.244Z,-0.86
2022-12-07T05:41:35.616Z,-1.01
2022-12-07T05:44:04.011Z,-0.98
2022-12-07T05:46:31.606Z,-0.94
2022-12-07T05:48:59.121Z,-0.87
2022-12-07T05:51:26.959Z,-0.91
2022-12-07T05:53:54.715Z,-1.07
2022-12-07T05:56:22.658Z,-0.96
2022-12-07T05:59:09.316Z,-0.98
2022-12-07T06:01:36.801Z,-1.00
2022-12-07T06:04:04.914Z,-0.95
2022-12-07T06:06:32.494Z,-0.94
2022-12-07T06:08:59.965Z,-0.89
2022-12-07T06:11:46.461Z,-0.87
2022-12-07T06:14:14.127Z,-0.79
2022-12-07T06:16:42.378Z,-0.98
2022-12-07T06:19:09.960Z,-0.88
2022-12-07T06:21:37.517Z,-0.86
2022-12-07T06:24:05.616Z,-0.77
2022-12-07T06:26:33.153Z,-0.80
2022-12-07T06:29:00.614Z,-0.75
2022-12-07T06:31:28.423Z,-0.73
2022-12-07T06:34:06.020Z,-0.69
2022-12-07T06:36:34.256Z,-0.65
2022-12-07T06:39:02.263Z,-0.66
2022-12-07T06:41:29.837Z,-0.69
2022-12-07T06:43:57.560Z,-0.64
2022-12-07T06:46:27.049Z,-0.62
2022-12-07T06:48:57.832Z,-0.59
2022-12-07T06:51:27.252Z,-0.53
2022-12-07T06:53:58.902Z,-0.59
2022-12-07T06:56:31.426Z,-0.54
2022-12-07T06:58:59.591Z,-0.49
2022-12-07T07:01:27.549Z,-0.44
2022-12-07T07:03:55.618Z,-0.44
2022-12-07T07:06:23.227Z,-0.43
2022-12-07T07:08:51.025Z,-0.48
2022-12-07T07:11:19.300Z,-0.38
2022-12-07T07:13:46.929Z,-0.55
2022-12-07T07:16:14.796Z,-0.57
2022-12-07T07:18:42.395Z,-0.38
2022-12-07T07:21:10.152Z,-0.31
2022-12-07T07:23:37.953Z,-0.27
2022-12-07T07:26:05.504Z,-0.29
2022-12-07T07:28:33.204Z,-0.39
2022-12-07T07:31:01.297Z,-0.51
2022-12-07T07:33:28.819Z,-0.46
2022-12-07T07:35:56.470Z,-0.76
2022-12-07T07:38:24.325Z,-0.89
2022-12-07T07:40:51.821Z,-0.85
2022-12-07T07:43:19.333Z,-0.60
2022-12-07T07:45:47.139Z,-0.63
2022-12-07T07:48:14.773Z,-0.88
2022-12-07T07:50:42.236Z,-0.79
2022-12-07T07:53:15.546Z,-0.43
2022-12-07T07:55:42.936Z,-0.05
2022-12-07T07:58:10.732Z,-0.23
2022-12-07T08:00:38.261Z,-0.19
2022-12-07T08:03:06.018Z,-0.10
2022-12-07T08:05:33.514Z,0.07
2022-12-07T08:08:01.156Z,0.14
2022-12-07T08:10:28.905Z,0.22
2022-12-07T08:13:15.052Z,0.34
2022-12-07T08:15:45.591Z,0.33
2022-12-07T08:18:15.020Z,0.51
2022-12-07T08:20:43.538Z,0.61
2022-12-07T08:23:11.925Z,0.70
2022-12-07T08:25:40.465Z,0.71
2022-12-07T08:28:08.579Z,0.84
2022-12-07T08:30:36.041Z,1.05
2022-12-07T08:33:03.754Z,1.21
2022-12-07T08:35:34.176Z,1.37
2022-12-07T08:38:03.242Z,1.47
2022-12-07T08:40:31.418Z,1.60
2022-12-07T08:42:58.888Z,1.64
2022-12-07T08:45:27.601Z,1.82
2022-12-07T08:48:06.644Z,2.06
2022-12-07T08:50:35.301Z,1.95
2022-12-07T08:53:06.521Z,2.06
2022-12-07T08:55:35.630Z,2.02
2022-12-07T08:58:03.924Z,2.00
2022-12-07T09:00:31.416Z,2.00
2022-12-07T09:02:58.906Z,2.13
2022-12-07T09:05:27.048Z,2.18
2022-12-07T09:08:00.946Z,2.19
2022-12-07T09:10:30.495Z,2.37
2022-12-07T09:13:01.826Z,2.29
2022-12-07T09:15:30.064Z,2.47
2022-12-07T09:17:57.715Z,2.61
2022-12-07T09:20:28.109Z,2.87
2022-12-07T09:22:57.865Z,2.69
2022-12-07T09:25:25.368Z,3.10
2022-12-07T09:27:58.216Z,3.22
2022-12-07T09:30:27.447Z,3.19
2022-12-07T09:32:57.193Z,3.10
2022-12-07T09:35:25.576Z,3.32
2022-12-07T09:37:53.399Z,3.31
2022-12-07T09:40:22.439Z,3.49
2022-12-07T09:42:53.530Z,3.65
2022-12-07T09:45:43.202Z,3.72
2022-12-07T09:48:21.949Z,3.79
2022-12-07T09:50:51.177Z,3.80
2022-12-07T09:53:39.210Z,3.60
2022-12-07T09:56:07.427Z,3.64
2022-12-07T09:58:35.117Z,3.73
2022-12-07T10:01:15.607Z,3.73
2022-12-07T10:04:02.824Z,3.72
2022-12-07T10:06:30.422Z,3.70
2022-12-07T10:08:58.308Z,3.72
2022-12-07T10:11:25.829Z,3.76
2022-12-07T10:13:55.057Z,3.76
2022-12-07T10:16:32.771Z,3.82
2022-12-07T10:19:28.348Z,4.12
2022-12-07T10:22:11.878Z,4.32
2022-12-07T10:24:44.478Z,4.43
2022-12-07T10:27:32.444Z,4.58
2022-12-07T10:30:01.020Z,4.75
2022-12-07T10:32:31.780Z,4.74
2022-12-07T10:35:29.333Z,4.67
2022-12-07T10:38:00.724Z,4.92
2022-12-07T10:40:30.740Z,5.11
2022-12-07T10:43:13.677Z,5.19
2022-12-07T10:46:21.751Z,5.15
2022-12-07T10:49:18.801Z,5.37
2022-12-07T10:52:11.009Z,5.54
2022-12-07T10:54:42.134Z,5.67
2022-12-07T10:57:28.501Z,5.80
2022-12-07T11:00:06.048Z,5.83
2022-12-07T11:02:51.816Z,5.89
2022-12-07T11:05:52.104Z,5.95
2022-12-07T11:08:40.595Z,5.99
2022-12-07T11:11:24.628Z,6.05
2022-12-07T11:14:30.482Z,5.89
2022-12-07T11:17:10.095Z,6.06
2022-12-07T11:19:45.334Z,5.87
2022-12-07T11:22:47.001Z,6.09
2022-12-07T11:25:14.346Z,6.23
2022-12-07T11:27:46.100Z,6.26
2022-12-07T11:30:13.552Z,6.34
2022-12-07T11:33:05.714Z,6.36
2022-12-07T11:35:47.547Z,6.38
2022-12-07T11:38:28.101Z,6.50
2022-12-07T11:41:14.124Z,6.61
2022-12-07T11:43:55.896Z,6.78
2022-12-07T11:46:28.870Z,6.85
2022-12-07T11:49:04.836Z,6.90
2022-12-07T11:51:39.438Z,6.93
2022-12-07T11:54:17.135Z,6.92
2022-12-07T11:56:51.014Z,6.90
2022-12-07T11:59:39.631Z,6.85
2022-12-07T12:02:10.630Z,6.89
2022-12-07T12:05:07.020Z,6.90
2022-12-07T12:10:39.020Z,7.00
2022-12-07T12:16:57.855Z,7.03
2022-12-07T12:19:42.756Z,7.13
2022-12-07T12:22:23.278Z,7.26
2022-12-07T12:24:56.129Z,7.35
2022-12-07T12:27:40.273Z,7.50
2022-12-07T12:30:32.623Z,7.58
2022-12-07T12:33:31.489Z,7.56
2022-12-07T12:36:20.681Z,7.62
2022-12-07T12:39:11.883Z,7.68
2022-12-07T12:41:48.070Z,7.74
2022-12-07T12:44:15.748Z,7.77
2022-12-07T12:47:22.605Z,7.82
2022-12-07T12:50:33.742Z,7.85
2022-12-07T12:53:15.074Z,7.74
2022-12-07T12:55:42.834Z,7.49
2022-12-07T12:58:38.189Z,7.14
2022-12-07T13:01:37.105Z,7.00
2022-12-07T13:04:19.656Z,7.23
2022-12-07T13:06:48.064Z,6.88
2022-12-07T13:09:25.628Z,6.81
2022-12-07T13:12:06.617Z,7.09
2022-12-07T13:14:55.676Z,7.17
2022-12-07T13:17:32.532Z,7.45
2022-12-07T13:20:14.245Z,7.87
2022-12-07T13:22:49.734Z,8.30
2022-12-07T13:25:30.956Z,8.23
2022-12-07T13:28:17.716Z,8.73
2022-12-07T13:30:51.015Z,8.01
2022-12-07T13:33:20.158Z,7.57
2022-12-07T13:35:48.113Z,7.79
2022-12-07T13:38:28.324Z,7.75
2022-12-07T13:41:06.560Z,7.65
2022-12-07T13:43:45.272Z,7.53
2022-12-07T13:46:18.193Z,7.47
2022-12-07T13:48:48.025Z,7.31
2022-12-07T13:51:38.016Z,7.29
2022-12-07T13:54:14.325Z,7.20
2022-12-07T13:56:50.701Z,7.04
2022-12-07T13:59:26.670Z,7.03
2022-12-07T14:01:55.160Z,6.95
2022-12-07T14:04:31.626Z,6.95
2022-12-07T14:07:02.371Z,6.89
2022-12-07T14:09:31.548Z,6.87
2022-12-07T14:11:59.723Z,6.80
2022-12-07T14:14:36.337Z,6.73
2022-12-07T14:17:20.139Z,6.64
2022-12-07T14:20:01.063Z,6.58
2022-12-07T14:22:39.567Z,6.54
2022-12-07T14:25:19.212Z,6.47
2022-12-07T14:27:59.657Z,6.36
2022-12-07T14:30:30.221Z,6.27
2022-12-07T14:33:03.880Z,6.86
2022-12-07T14:35:32.896Z,7.25
2022-12-07T14:38:01.167Z,7.41
2022-12-07T14:40:31.140Z,7.34
2022-12-07T14:43:02.973Z,7.47
2022-12-07T14:45:30.952Z,7.00
2022-12-07T14:53:49.840Z,6.05
2022-12-07T14:56:21.191Z,5.90
2022-12-07T14:58:49.243Z,5.74
2022-12-07T15:01:16.883Z,5.63
2022-12-07T15:03:44.869Z,5.55
2022-12-07T15:06:16.535Z,5.48
2022-12-07T15:08:47.340Z,5.35
2022-12-07T15:11:17.374Z,5.28
2022-12-07T15:14:05.114Z,5.20
2022-12-07T15:16:52.561Z,5.12
2022-12-07T15:19:32.096Z,5.07
2022-12-07T15:22:00.853Z,5.05
2022-12-07T15:24:28.717Z,5.03
2022-12-07T15:26:56.263Z,4.92
2022-12-07T15:29:24.171Z,4.86
2022-12-07T15:31:56.534Z,4.79
2022-12-07T15:34:34.721Z,4.77
2022-12-07T15:37:06.118Z,4.71
2022-12-07T15:39:33.788Z,4.59
2022-12-07T15:42:01.585Z,4.56
2022-12-07T15:44:48.081Z,4.45
2022-12-07T15:47:15.631Z,4.37
2022-12-07T15:49:43.775Z,4.28
2022-12-07T15:52:11.236Z,4.27
2022-12-07T15:54:38.883Z,4.24
2022-12-07T15:57:06.618Z,4.21
2022-12-07T15:59:34.362Z,4.08
2022-12-07T16:02:01.894Z,3.97
2022-12-07T16:04:30.788Z,3.95
2022-12-07T16:06:58.886Z,3.85
2022-12-07T16:09:26.592Z,4.00
2022-12-07T16:11:54.370Z,3.98
2022-12-07T16:14:22.312Z,3.92
2022-12-07T16:16:50.353Z,3.92
2022-12-07T16:19:18.529Z,3.95
2022-12-07T16:21:45.970Z,3.93
2022-12-07T16:24:16.080Z,3.89
2022-12-07T16:26:49.922Z,3.84
2022-12-07T16:29:20.692Z,3.89
2022-12-07T16:31:49.881Z,3.82
2022-12-07T16:34:18.269Z,3.74
2022-12-07T16:37:04.162Z,3.75
2022-12-07T16:39:34.338Z,3.72
2022-12-07T16:42:01.961Z,3.66
2022-12-07T16:44:29.397Z,3.66
2022-12-07T16:46:57.457Z,3.64
2022-12-07T16:49:25.342Z,3.61
2022-12-07T16:52:14.780Z,3.63
2022-12-07T16:54:40.723Z,3.65
2022-12-07T16:57:08.197Z,3.69
2022-12-07T16:59:35.662Z,3.66
2022-12-07T17:02:03.471Z,3.63
2022-12-07T17:04:31.180Z,3.59
2022-12-07T17:06:59.959Z,3.59
2022-12-07T17:09:29.082Z,3.58
2022-12-07T17:11:56.908Z,3.58
2022-12-07T17:14:43.092Z,3.66
2022-12-07T17:17:10.833Z,3.64
2022-12-07T17:19:38.341Z,3.57
2022-12-07T17:22:06.426Z,3.62
2022-12-07T17:24:34.144Z,3.59
2022-12-07T17:27:01.743Z,3.70
2022-12-07T17:29:29.565Z,3.67
2022-12-07T17:31:57.379Z,3.64
2022-12-07T17:34:24.858Z,3.67
2022-12-07T17:36:59.990Z,3.63
2022-12-07T17:39:27.817Z,3.64
2022-12-07T17:42:13.750Z,3.70
2022-12-07T17:44:41.929Z,3.64
2022-12-07T17:47:11.156Z,3.58
2022-12-07T17:49:39.305Z,3.62
2022-12-07T17:52:25.663Z,3.60
2022-12-07T17:54:53.149Z,3.58
2022-12-07T17:57:21.116Z,3.59
2022-12-07T17:59:48.808Z,3.60
2022-12-07T18:02:16.904Z,3.61
2022-12-07T18:04:45.789Z,3.61
2022-12-07T18:07:13.882Z,3.62
2022-12-07T18:09:42.216Z,3.64
2022-12-07T18:12:09.947Z,3.63
2022-12-07T18:14:37.561Z,3.59
2022-12-07T18:17:05.209Z,3.61
2022-12-07T18:19:36.849Z,3.56
2022-12-07T18:22:05.372Z,3.65
2022-12-07T18:24:36.717Z,3.59
2022-12-07T18:27:06.383Z,3.61
2022-12-07T18:29:34.624Z,3.54
2022-12-07T18:32:02.183Z,3.61
2022-12-07T18:34:30.567Z,3.55
2022-12-07T18:36:58.944Z,3.48
2022-12-07T18:39:31.796Z,3.43
2022-12-07T18:42:01.960Z,3.34
2022-12-07T18:44:29.774Z,3.39
2022-12-07T18:46:57.392Z,3.42
2022-12-07T18:49:25.416Z,3.41
2022-12-07T18:51:53.104Z,3.49
2022-12-07T18:54:21.132Z,3.34
2022-12-07T18:56:49.060Z,3.26
2022-12-07T18:59:35.128Z,3.16
2022-12-07T19:02:03.269Z,3.23
2022-12-07T19:04:31.068Z,3.20
2022-12-07T19:07:01.880Z,3.17
2022-12-07T19:09:30.895Z,3.18
2022-12-07T19:12:03.233Z,3.20
2022-12-07T19:14:38.343Z,3.14
2022-12-07T19:17:12.016Z,3.08
2022-12-07T19:19:41.932Z,3.01
2022-12-07T19:22:11.752Z,3.10
2022-12-07T19:24:39.877Z,3.09
2022-12-07T19:27:09.067Z,3.01
2022-12-07T19:29:36.595Z,3.02
2022-12-07T19:32:05.732Z,3.04
2022-12-07T19:34:33.700Z,3.01
2022-12-07T19:37:01.504Z,2.97
2022-12-07T19:39:30.108Z,2.99
2022-12-07T19:41:58.640Z,2.87
2022-12-07T19:44:29.874Z,2.94
2022-12-07T19:47:04.690Z,2.85
2022-12-07T19:49:35.687Z,2.81
2022-12-07T19:52:06.951Z,2.67
2022-12-07T19:54:36.375Z,2.71
2022-12-07T19:57:05.854Z,2.60
2022-12-07T19:59:34.667Z,2.54
2022-12-07T20:02:02.962Z,2.49
2022-12-07T20:04:35.391Z,2.36
2022-12-07T20:07:03.173Z,2.32
2022-12-07T20:09:31.342Z,2.33
2022-12-07T20:12:17.605Z,2.14
2022-12-07T20:14:45.371Z,2.17
2022-12-07T20:17:13.186Z,2.05
2022-12-07T20:19:41.248Z,2.01
2022-12-07T20:22:09.625Z,1.88
2022-12-07T20:24:37.386Z,2.01
2022-12-07T20:27:05.314Z,1.77
2022-12-07T20:29:33.941Z,1.91
2022-12-07T20:32:01.892Z,1.96
2022-12-07T20:34:29.373Z,1.97
2022-12-07T20:36:57.359Z,1.73
2022-12-07T20:39:25.090Z,1.82
2022-12-07T20:42:11.557Z,1.60
2022-12-07T20:44:39.613Z,1.67
2022-12-07T20:47:07.736Z,1.81
2022-12-07T20:49:35.672Z,1.71
2022-12-07T20:52:04.164Z,1.77
2022-12-07T20:54:31.928Z,1.78
2022-12-07T20:56:59.738Z,1.72
2022-12-07T20:59:27.604Z,1.71
2022-12-07T21:01:55.352Z,1.72
2022-12-07T21:04:22.902Z,1.71
2022-12-07T21:06:50.702Z,1.74
2022-12-07T21:09:19.809Z,1.75
2022-12-07T21:11:47.541Z,1.82
2022-12-07T21:14:15.297Z,1.80
2022-12-07T21:16:42.781Z,1.77
2022-12-07T21:19:10.475Z,1.83
2022-12-07T21:21:38.371Z,1.89
2022-12-07T21:24:08.140Z,1.91
2022-12-07T21:26:36.595Z,1.84
2022-12-07T21:29:06.520Z,1.88
2022-12-07T21:31:34.557Z,1.85
2022-12-07T21:34:03.719Z,1.81
2022-12-07T21:36:32.282Z,1.80
2022-12-07T21:39:00.007Z,1.90
2022-12-07T21:41:32.856Z,1.87
2022-12-07T21:44:01.900Z,1.96
2022-12-07T21:46:34.053Z,1.87
2022-12-07T21:49:06.599Z,1.91
2022-12-07T21:51:34.919Z,1.95
2022-12-07T21:54:04.485Z,1.87
2022-12-07T21:56:37.644Z,1.82
2022-12-07T21:59:09.037Z,1.80
2022-12-07T22:01:38.873Z,1.77
2022-12-07T22:04:08.565Z,1.76
2022-12-07T22:06:37.231Z,1.71
2022-12-07T22:09:06.547Z,1.76
2022-12-07T22:11:35.111Z,1.74
2022-12-07T22:14:23.382Z,1.80
2022-12-07T22:16:51.865Z,1.76
2022-12-07T22:19:19.301Z,1.76
2022-12-07T22:21:46.717Z,1.84
2022-12-07T22:24:15.124Z,1.77
2022-12-07T22:26:43.485Z,1.78
2022-12-07T22:29:11.801Z,1.76
2022-12-07T22:31:41.215Z,1.59
2022-12-07T22:34:15.139Z,1.69
2022-12-07T22:36:43.236Z,1.45
2022-12-07T22:39:11.193Z,1.58
2022-12-07T22:41:39.042Z,1.64
2022-12-07T22:44:07.869Z,1.65
2022-12-07T22:46:36.179Z,1.63
2022-12-07T22:49:04.990Z,1.66
2022-12-07T22:51:35.774Z,1.69
2022-12-07T22:54:05.705Z,1.72
2022-12-07T22:56:36.466Z,1.66
2022-12-07T22:59:06.564Z,1.77
2022-12-07T23:01:35.254Z,1.71
2022-12-07T23:04:03.090Z,1.69
2022-12-07T23:06:32.928Z,1.59
2022-12-07T23:09:02.934Z,1.49
2022-12-07T23:11:52.832Z,1.53
2022-12-07T23:14:25.986Z,1.61
2022-12-07T23:16:53.530Z,1.60
2022-12-07T23:19:21.302Z,1.57
2022-12-07T23:21:48.976Z,1.48
2022-12-07T23:24:16.771Z,1.39
2022-12-07T23:26:45.549Z,1.35
2022-12-07T23:29:17.573Z,1.45
2022-12-07T23:31:47.712Z,1.42
2022-12-07T23:34:15.427Z,1.38
2022-12-07T23:36:42.935Z,1.36
2022-12-07T23:39:11.594Z,1.31
2022-12-07T23:41:39.446Z,1.25
2022-12-07T23:44:07.429Z,1.14
2022-12-07T23:46:35.365Z,1.14
2022-12-07T23:49:05.321Z,0.98
2022-12-07T23:51:33.193Z,0.89
2022-12-07T23:54:04.235Z,0.94
2022-12-07T23:56:33.639Z,0.86
2022-12-07T23:59:02.532Z,0.74
